Time;durP1;ratioP1;P1;durP2;ratioP2;P2;SDS_P1;SDS_P2;PMS_P1;PMS_P2;Temp;Humidity;BMP_temperature;BMP_pressure;BME280_temperature;BME280_humidity;BME280_pressure;Samples;Min_cycle;Max_cycle;Signal;HPM_P1;HPM_P2
2023/10/31 00:00:35;;;;;;;3.30;1.90;;;;;;;11.49;100.00;98306.63;10275212;28;20059;-80
2023/10/31 00:05:38;;;;;;;5.28;1.70;;;;;;;11.37;100.00;98300.84;10283442;28;20058;-79
2023/10/31 00:10:44;;;;;;;2.80;2.03;;;;;;;11.43;100.00;98301.97;10284806;28;20097;-80
2023/10/31 00:15:49;;;;;;;3.38;2.20;;;;;;;11.65;100.00;98306.50;10287187;28;20042;-80
2023/10/31 00:20:52;;;;;;;4.72;2.50;;;;;;;11.62;100.00;98298.78;10290089;28;20101;-80
2023/10/31 00:25:54;;;;;;;3.55;2.47;;;;;;;11.62;100.00;98287.22;10293443;28;20046;-78
2023/10/31 00:31:00;;;;;;;3.33;2.88;;;;;;;11.69;100.00;98280.94;10289588;28;20198;-79
2023/10/31 00:36:04;;;;;;;3.65;2.97;;;;;;;11.58;100.00;98281.38;10293396;28;20906;-79
2023/10/31 00:41:07;;;;;;;7.10;2.47;;;;;;;11.67;100.00;98279.44;10295541;28;20053;-80
2023/10/31 00:46:11;;;;;;;5.30;2.78;;;;;;;11.67;100.00;98282.13;10291635;28;20046;-79
2023/10/31 00:51:14;;;;;;;2.95;2.63;;;;;;;11.67;100.00;98284.81;10289729;28;20704;-78
2023/10/31 00:56:17;;;;;;;5.18;2.88;;;;;;;11.77;100.00;98292.63;10283525;28;20086;-80
2023/10/31 01:01:21;;;;;;;3.13;2.70;;;;;;;11.70;100.00;98293.34;10295810;28;20057;-79
2023/10/31 01:06:24;;;;;;;3.60;3.13;;;;;;;11.50;100.00;98284.13;10295467;28;20050;-80
2023/10/31 01:11:27;;;;;;;2.65;2.42;;;;;;;11.44;100.00;98279.47;10304113;28;20050;-80
2023/10/31 01:16:31;;;;;;;3.50;2.90;;;;;;;11.42;100.00;98281.50;10290325;28;20054;-79
2023/10/31 01:21:34;;;;;;;3.22;2.92;;;;;;;11.67;100.00;98282.13;10287499;28;20058;-80
2023/10/31 01:26:37;;;;;;;3.28;2.85;;;;;;;11.59;100.00;98276.81;10278391;28;20049;-80
2023/10/31 01:31:43;;;;;;;5.47;2.75;;;;;;;11.58;100.00;98286.75;10291117;28;20428;-80
2023/10/31 01:37:01;;;;;;;3.45;3.15;;;;;;;11.56;100.00;98283.38;10291744;28;20179;-80
2023/10/31 01:42:04;;;;;;;3.85;3.05;;;;;;;11.59;100.00;98290.25;10289415;28;20054;-80
2023/10/31 01:47:08;;;;;;;3.75;3.20;;;;;;;11.58;100.00;98285.91;10286795;28;20057;-79
2023/10/31 01:52:12;;;;;;;4.18;3.55;;;;;;;11.65;100.00;98284.97;10291027;28;20152;-80
2023/10/31 01:57:15;;;;;;;5.10;4.65;;;;;;;11.46;100.00;98272.91;10291323;28;20057;-79
2023/10/31 02:02:23;;;;;;;4.78;4.18;;;;;;;11.21;100.00;98268.72;10292275;28;20572;-81
2023/10/31 02:07:26;;;;;;;8.60;5.57;;;;;;;11.16;100.00;98268.44;10288205;28;20651;-81
2023/10/31 02:12:33;;;;;;;6.88;6.18;;;;;;;10.87;100.00;98255.69;10293766;28;20054;-81
2023/10/31 02:17:37;;;;;;;5.70;5.10;;;;;;;10.44;100.00;98261.47;10290833;28;20057;-80
2023/10/31 02:22:41;;;;;;;8.65;6.57;;;;;;;10.07;100.00;98280.91;10293741;28;20051;-78
2023/10/31 02:27:44;;;;;;;10.63;9.27;;;;;;;10.33;100.00;98281.47;10304387;28;21546;-80
2023/10/31 02:32:49;;;;;;;9.30;8.38;;;;;;;9.70;100.00;98268.88;10284731;28;20060;-80
2023/10/31 02:37:53;;;;;;;9.63;8.68;;;;;;;9.47;100.00;98301.72;10290328;28;20054;-79
2023/10/31 02:42:56;;;;;;;7.35;6.63;;;;;;;9.07;100.00;98302.53;10290158;28;20501;-79
2023/10/31 02:48:04;;;;;;;6.28;5.68;;;;;;;8.87;100.00;98312.72;10295696;28;20129;-79
2023/10/31 02:53:09;;;;;;;5.28;4.68;;;;;;;9.09;100.00;98313.94;10318020;28;20378;-78
2023/10/31 02:58:13;;;;;;;5.57;4.88;;;;;;;9.30;100.00;98297.38;10302019;28;20062;-80
2023/10/31 03:03:16;;;;;;;2.97;2.67;;;;;;;9.03;100.00;98309.25;10311512;28;20089;-80
2023/10/31 03:08:22;;;;;;;2.58;2.38;;;;;;;8.90;100.00;98315.06;10297421;28;20077;-80
2023/10/31 03:13:26;;;;;;;1.00;1.00;;;;;;;8.86;100.00;98323.56;10302970;28;20046;-82
2023/10/31 03:18:32;;;;;;;1.00;0.82;;;;;;;8.93;100.00;98330.78;10293583;28;21166;-80
2023/10/31 03:23:36;;;;;;;1.00;1.00;;;;;;;8.54;100.00;98320.66;10272937;28;20109;-78
2023/10/31 03:28:44;;;;;;;0.63;0.63;;;;;;;8.89;100.00;98352.72;10294288;28;20090;-80
2023/10/31 03:33:48;;;;;;;0.50;0.50;;;;;;;8.70;100.00;98357.34;10299108;28;20094;-80
2023/10/31 03:38:53;;;;;;;0.10;0.10;;;;;;;8.60;100.00;98378.03;10312026;28;20754;-78
2023/10/31 03:43:57;;;;;;;1.08;0.25;;;;;;;8.96;100.00;98375.16;10312670;28;20074;-80
2023/10/31 03:49:01;;;;;;;0.20;0.20;;;;;;;8.90;100.00;98368.59;10297719;28;20046;-80
2023/10/31 03:54:09;;;;;;;0.55;0.38;;;;;;;8.77;100.00;98406.53;10308090;28;20048;-79
2023/10/31 03:59:13;;;;;;;0.20;0.20;;;;;;;8.73;100.00;98399.00;10306057;28;20053;-80
2023/10/31 04:04:17;;;;;;;0.45;0.20;;;;;;;8.46;100.00;98386.66;10312391;28;20050;-79
2023/10/31 04:09:21;;;;;;;3.53;0.30;;;;;;;8.88;100.00;98393.88;10273283;28;20046;-79
2023/10/31 04:14:26;;;;;;;1.48;0.50;;;;;;;8.70;100.00;98412.72;10309780;28;20050;-78
2023/10/31 04:19:31;;;;;;;1.75;0.65;;;;;;;8.83;100.00;98416.63;10308911;28;20133;-79
2023/10/31 04:24:36;;;;;;;2.22;0.70;;;;;;;8.84;100.00;98420.13;10316995;28;20101;-79
2023/10/31 04:29:39;;;;;;;1.35;0.65;;;;;;;8.78;100.00;98431.50;10330708;28;20105;-78
2023/10/31 04:34:42;;;;;;;1.58;1.30;;;;;;;8.49;100.00;98408.59;10326522;28;20046;-79
2023/10/31 04:39:46;;;;;;;3.80;1.42;;;;;;;8.81;99.48;98437.34;10312849;28;20104;-80
2023/10/31 04:44:49;;;;;;;1.75;0.73;;;;;;;8.55;100.00;98450.75;10299651;28;21034;-80
2023/10/31 04:49:52;;;;;;;3.10;1.67;;;;;;;8.66;99.82;98449.66;10299688;28;21269;-79
2023/10/31 04:54:57;;;;;;;2.03;1.75;;;;;;;8.55;100.00;98464.13;10303983;28;20526;-79
2023/10/31 05:00:00;;;;;;;3.05;2.78;;;;;;;8.77;98.26;98475.31;10301090;28;20126;-79
2023/10/31 05:05:03;;;;;;;5.38;3.00;;;;;;;8.58;100.00;98498.63;10293388;28;20054;-80
2023/10/31 05:10:09;;;;;;;6.82;3.58;;;;;;;8.76;98.80;98508.44;10300352;28;20081;-79
2023/10/31 05:15:12;;;;;;;4.82;3.35;;;;;;;8.75;99.45;98509.41;10294917;28;20047;-80
2023/10/31 05:20:15;;;;;;;4.15;3.45;;;;;;;8.93;98.50;98512.88;10295550;28;20066;-77
2023/10/31 05:25:19;;;;;;;6.30;4.68;;;;;;;8.97;98.46;98518.75;10311737;28;20117;-80
2023/10/31 05:30:22;;;;;;;6.75;3.45;;;;;;;8.70;98.86;98522.47;10293202;28;20053;-79
2023/10/31 05:35:25;;;;;;;8.98;4.97;;;;;;;8.80;99.60;98544.59;10321569;28;21352;-79
2023/10/31 05:40:32;;;;;;;6.20;5.50;;;;;;;9.06;98.31;98534.69;10301971;28;20051;-79
2023/10/31 05:45:35;;;;;;;5.68;4.10;;;;;;;8.72;99.99;98536.50;10297145;28;20054;-79
2023/10/31 05:50:38;;;;;;;12.38;6.55;;;;;;;8.47;100.00;98530.97;10303022;28;20066;-79
2023/10/31 05:55:42;;;;;;;11.38;7.47;;;;;;;8.74;99.86;98550.56;10305956;28;20053;-78
2023/10/31 06:00:45;;;;;;;10.00;6.50;;;;;;;8.77;100.00;98555.59;10306184;28;20624;-79
2023/10/31 06:05:48;;;;;;;10.68;5.32;;;;;;;8.54;100.00;98561.47;10287960;28;20054;-79
2023/10/31 06:10:52;;;;;;;15.05;10.85;;;;;;;8.32;100.00;98562.78;10296366;28;20050;-79
2023/10/31 06:15:57;;;;;;;15.48;8.30;;;;;;;8.11;100.00;98571.09;10304925;28;20110;-78
2023/10/31 06:21:04;;;;;;;18.17;11.15;;;;;;;8.57;100.00;98577.22;10291068;28;20042;-78
2023/10/31 06:26:08;;;;;;;24.25;14.18;;;;;;;8.51;100.00;98572.50;10296156;28;20046;-78
2023/10/31 06:31:11;;;;;;;15.18;10.20;;;;;;;8.26;100.00;98566.06;10289195;28;20054;-78
2023/10/31 06:36:15;;;;;;;26.55;15.20;;;;;;;8.24;100.00;98562.69;10288974;28;20121;-78
2023/10/31 06:41:19;;;;;;;23.77;14.07;;;;;;;8.53;100.00;98565.16;10303182;28;20057;-78
2023/10/31 06:46:22;;;;;;;24.65;13.98;;;;;;;8.34;100.00;98579.53;10313211;28;20081;-78
2023/10/31 06:51:25;;;;;;;28.63;14.10;;;;;;;8.53;100.00;98591.91;10300496;28;20571;-80
2023/10/31 06:56:29;;;;;;;23.27;11.70;;;;;;;8.33;100.00;98590.34;10289515;28;21105;-77
2023/10/31 07:01:32;;;;;;;18.48;12.18;;;;;;;8.35;100.00;98596.41;10332462;28;20075;-78
2023/10/31 07:06:35;;;;;;;24.70;13.63;;;;;;;8.46;100.00;98598.88;10292494;28;20054;-78
2023/10/31 07:11:41;;;;;;;12.57;8.02;;;;;;;8.29;100.00;98610.41;10306057;28;20049;-78
2023/10/31 07:16:44;;;;;;;13.63;8.90;;;;;;;8.26;100.00;98605.34;10306310;28;20054;-80
2023/10/31 07:21:47;;;;;;;18.10;10.95;;;;;;;8.21;100.00;98626.38;10302873;28;20061;-79
2023/10/31 07:26:52;;;;;;;19.23;12.13;;;;;;;8.34;100.00;98625.00;10294013;28;20633;-79
2023/10/31 07:31:56;;;;;;;12.25;7.85;;;;;;;8.65;100.00;98643.34;10292755;28;21819;-79
2023/10/31 07:36:59;;;;;;;4.20;3.40;;;;;;;7.79;100.00;98646.47;10285219;28;20161;-79
2023/10/31 07:42:03;;;;;;;5.22;3.47;;;;;;;8.40;100.00;98666.34;10282861;28;20495;-79
2023/10/31 07:47:07;;;;;;;2.55;2.08;;;;;;;8.08;100.00;98669.50;10287322;28;20058;-80
2023/10/31 07:52:10;;;;;;;2.00;1.70;;;;;;;8.13;100.00;98668.06;10307905;28;20072;-79
2023/10/31 07:57:14;;;;;;;2.00;1.40;;;;;;;8.25;100.00;98683.91;10295880;28;20055;-80
2023/10/31 08:02:17;;;;;;;2.28;2.00;;;;;;;8.56;100.00;98687.09;10282881;28;20051;-80
2023/10/31 08:07:20;;;;;;;1.45;0.95;;;;;;;8.20;100.00;98688.84;10297456;28;20157;-79
2023/10/31 08:12:24;;;;;;;2.28;1.63;;;;;;;8.78;100.00;98688.47;10296148;28;20046;-81
2023/10/31 08:17:27;;;;;;;2.50;1.35;;;;;;;9.10;100.00;98695.06;10293369;28;20051;-80
2023/10/31 08:22:30;;;;;;;1.48;1.38;;;;;;;9.01;100.00;98710.25;10283333;28;20124;-81
2023/10/31 08:27:34;;;;;;;1.42;1.33;;;;;;;9.18;100.00;98709.38;10299220;28;20065;-81
2023/10/31 08:32:37;;;;;;;1.75;1.15;;;;;;;9.23;100.00;98730.34;10293876;28;20054;-80
2023/10/31 08:37:40;;;;;;;1.30;1.13;;;;;;;9.01;100.00;98739.72;10303686;28;20046;-79
2023/10/31 08:42:45;;;;;;;2.22;1.70;;;;;;;8.96;100.00;98745.50;10309348;28;20098;-79
2023/10/31 08:47:47;;;;;;;2.45;1.40;;;;;;;8.69;100.00;98748.28;10290797;28;20042;-80
2023/10/31 08:52:50;;;;;;;1.50;1.40;;;;;;;9.05;100.00;98770.53;10296677;28;20477;-80
2023/10/31 08:57:55;;;;;;;2.20;1.40;;;;;;;8.90;100.00;98770.25;10292777;28;20059;-80
2023/10/31 09:02:58;;;;;;;1.20;0.93;;;;;;;9.41;96.25;98806.19;10312737;28;20102;-79
2023/10/31 09:08:01;;;;;;;2.28;1.02;;;;;;;9.05;97.94;98787.47;10307178;28;20047;-79
2023/10/31 09:13:05;;;;;;;2.92;1.17;;;;;;;9.54;95.32;98788.84;10279668;28;20050;-79
2023/10/31 09:18:08;;;;;;;2.15;1.42;;;;;;;9.49;95.49;98789.34;10284653;28;20108;-80
2023/10/31 09:23:11;;;;;;;3.40;2.17;;;;;;;9.49;95.57;98813.47;10285809;28;20116;-79
2023/10/31 09:28:16;;;;;;;3.00;2.30;;;;;;;9.18;98.43;98821.88;10289064;28;20992;-79
2023/10/31 09:33:19;;;;;;;3.30;2.85;;;;;;;9.05;98.78;98840.16;10283228;28;20065;-80
2023/10/31 09:38:22;;;;;;;6.65;3.55;;;;;;;9.43;96.93;98836.31;10292863;28;21350;-79
2023/10/31 09:43:26;;;;;;;3.72;3.10;;;;;;;9.43;96.11;98841.69;10278150;28;20055;-79
2023/10/31 09:48:29;;;;;;;3.90;3.22;;;;;;;9.73;93.77;98850.31;10284049;28;20533;-79
2023/10/31 09:53:34;;;;;;;3.45;1.77;;;;;;;9.32;94.23;98876.75;10281735;28;20053;-79
2023/10/31 09:58:39;;;;;;;4.38;3.08;;;;;;;9.51;94.19;98871.25;10279022;28;20057;-78
2023/10/31 10:03:43;;;;;;;3.90;3.05;;;;;;;9.57;93.33;98879.66;10287083;28;20046;-80
2023/10/31 10:08:46;;;;;;;6.40;3.75;;;;;;;9.69;92.51;98894.53;10283459;28;20047;-80
2023/10/31 10:13:52;;;;;;;7.72;4.97;;;;;;;9.63;92.69;98911.25;10286669;28;20055;-80
2023/10/31 10:18:55;;;;;;;7.28;4.13;;;;;;;9.37;96.73;98911.16;10278638;28;20675;-80
2023/10/31 10:23:58;;;;;;;8.43;5.28;;;;;;;9.45;98.71;98924.63;10278793;28;20058;-79
2023/10/31 10:29:02;;;;;;;11.93;7.43;;;;;;;8.91;100.00;98927.22;10277916;28;20054;-80
2023/10/31 10:34:06;;;;;;;11.43;6.68;;;;;;;8.70;100.00;98930.16;10284278;28;21021;-79
2023/10/31 10:39:11;;;;;;;13.73;7.63;;;;;;;8.68;100.00;98929.47;10289209;28;20050;-79
2023/10/31 10:44:16;;;;;;;13.95;8.63;;;;;;;8.66;100.00;98931.44;10272088;28;20265;-79
2023/10/31 10:49:25;;;;;;;15.93;9.43;;;;;;;8.53;100.00;98939.81;10274099;28;20058;-79
2023/10/31 10:54:33;;;;;;;18.48;9.40;;;;;;;8.60;100.00;98940.88;10274701;28;20065;-80
2023/10/31 10:59:42;;;;;;;19.08;11.48;;;;;;;8.64;100.00;98945.94;10268921;28;20050;-79
2023/10/31 11:04:46;;;;;;;23.30;14.20;;;;;;;8.83;100.00;98948.53;10268077;28;20046;-78
2023/10/31 11:09:50;;;;;;;18.40;11.15;;;;;;;8.65;100.00;98953.00;10272552;28;20050;-80
2023/10/31 11:14:55;;;;;;;23.40;12.75;;;;;;;8.73;100.00;98966.50;10301177;28;20060;-78
2023/10/31 11:19:59;;;;;;;22.73;12.45;;;;;;;8.79;100.00;98960.56;10308974;28;20073;-79
2023/10/31 11:25:02;;;;;;;19.52;10.85;;;;;;;8.75;100.00;98964.50;10291538;28;20054;-79
2023/10/31 11:30:08;;;;;;;18.33;9.75;;;;;;;8.74;100.00;98970.84;10292560;28;20050;-80
2023/10/31 11:35:13;;;;;;;15.70;10.23;;;;;;;8.69;100.00;98978.47;10288636;28;20066;-79
2023/10/31 11:40:18;;;;;;;14.00;9.55;;;;;;;9.07;100.00;98977.47;10294798;28;20090;-78
2023/10/31 11:45:30;;;;;;;12.05;7.45;;;;;;;9.29;100.00;98982.41;10294046;28;20114;-77
2023/10/31 11:50:33;;;;;;;15.45;8.65;;;;;;;10.68;100.00;98980.09;10321089;28;20042;-78
2023/10/31 11:55:37;;;;;;;14.60;10.50;;;;;;;10.70;100.00;98979.97;10285859;28;20054;-80
2023/10/31 12:00:42;;;;;;;9.60;6.88;;;;;;;11.47;94.29;98999.63;10285440;28;20632;-79
2023/10/31 12:05:55;;;;;;;9.48;7.43;;;;;;;10.51;100.00;98975.66;10318224;28;20497;-79
2023/10/31 12:11:09;;;;;;;10.13;8.45;;;;;;;12.01;91.01;98986.59;10299085;28;20144;-79
2023/10/31 12:16:13;;;;;;;10.05;7.63;;;;;;;10.56;100.00;99002.88;10282889;28;20046;-80
2023/10/31 12:21:16;;;;;;;12.95;8.43;;;;;;;10.14;100.00;99001.69;10297922;28;20521;-79
2023/10/31 12:26:22;;;;;;;11.10;8.38;;;;;;;10.07;100.00;99006.03;10285130;28;21215;-80
2023/10/31 12:31:26;;;;;;;12.98;9.50;;;;;;;9.48;100.00;99013.59;10292824;28;20224;-77
2023/10/31 12:36:29;;;;;;;16.20;11.95;;;;;;;9.93;100.00;99015.47;10290464;28;20097;-78
2023/10/31 12:41:33;;;;;;;10.30;7.78;;;;;;;10.67;100.00;99012.47;10299373;28;20121;-78
2023/10/31 12:46:41;;;;;;;14.38;8.63;;;;;;;11.76;93.22;99015.31;10300662;28;20133;-79
2023/10/31 12:51:57;;;;;;;11.32;8.57;;;;;;;10.64;97.09;99012.81;10296758;28;20053;-78
2023/10/31 12:57:01;;;;;;;13.82;8.27;;;;;;;10.54;97.41;99016.44;10280159;28;20057;-79
2023/10/31 13:02:06;;;;;;;9.90;8.02;;;;;;;10.43;97.78;99023.91;10290024;28;20469;-78
2023/10/31 13:07:09;;;;;;;7.00;4.93;;;;;;;9.89;99.65;99029.31;10291156;28;20042;-78
2023/10/31 13:12:12;;;;;;;13.70;10.88;;;;;;;10.33;99.95;99045.47;10294522;28;20050;-79
2023/10/31 13:17:19;;;;;;;13.50;9.20;;;;;;;10.16;100.00;99037.28;10290208;28;20430;-79
2023/10/31 13:22:22;;;;;;;15.40;11.38;;;;;;;10.31;100.00;99052.81;10291352;28;20057;-78
2023/10/31 13:27:25;;;;;;;15.75;11.27;;;;;;;10.64;100.00;99047.72;10319816;28;21040;-78
2023/10/31 13:32:29;;;;;;;11.45;9.18;;;;;;;10.21;100.00;99063.66;10294201;28;20065;-78
2023/10/31 13:37:33;;;;;;;14.13;8.38;;;;;;;10.23;100.00;99076.91;10298840;28;20050;-79
2023/10/31 13:42:37;;;;;;;17.08;11.05;;;;;;;10.14;100.00;99062.56;10285610;28;20130;-79
2023/10/31 13:47:41;;;;;;;16.85;12.48;;;;;;;10.13;100.00;99074.31;10294351;28;20039;-79
2023/10/31 13:52:44;;;;;;;20.73;14.10;;;;;;;10.35;100.00;99073.84;10266873;28;20062;-78
2023/10/31 13:57:47;;;;;;;18.45;11.90;;;;;;;10.13;100.00;99074.31;10280493;28;20054;-78
2023/10/31 14:02:51;;;;;;;12.27;8.93;;;;;;;10.04;100.00;99088.63;10288424;28;20047;-80
2023/10/31 14:07:54;;;;;;;14.82;10.00;;;;;;;10.09;99.94;99089.03;10288773;28;21429;-77
2023/10/31 14:12:57;;;;;;;17.33;13.68;;;;;;;10.19;100.00;99099.69;10283211;28;20355;-79
2023/10/31 14:18:02;;;;;;;22.42;12.90;;;;;;;10.36;100.00;99101.53;10277650;28;20039;-77
2023/10/31 14:23:05;;;;;;;16.55;12.80;;;;;;;10.31;100.00;99106.50;10291329;28;20057;-79
2023/10/31 14:28:08;;;;;;;19.27;12.00;;;;;;;10.13;100.00;99117.25;10290979;28;20050;-79
2023/10/31 14:33:13;;;;;;;21.00;13.65;;;;;;;10.45;99.36;99116.72;10277937;28;20050;-79
2023/10/31 14:38:16;;;;;;;19.88;12.02;;;;;;;10.09;100.00;99119.41;10286985;28;20050;-79
2023/10/31 14:43:19;;;;;;;18.50;13.40;;;;;;;10.12;100.00;99131.63;10294608;28;20687;-79
2023/10/31 14:48:24;;;;;;;21.65;15.50;;;;;;;10.13;100.00;99131.50;10308254;28;20043;-79
2023/10/31 14:53:27;;;;;;;22.30;12.80;;;;;;;10.06;100.00;99133.09;10331460;28;20058;-79
2023/10/31 14:58:30;;;;;;;22.02;14.52;;;;;;;10.55;98.11;99144.31;10276554;28;20050;-79
2023/10/31 15:03:34;;;;;;;22.00;12.80;;;;;;;10.01;100.00;99131.84;10288683;28;20057;-79
2023/10/31 15:08:37;;;;;;;17.00;11.50;;;;;;;10.08;99.20;99141.84;10271442;28;20073;-79
2023/10/31 15:13:40;;;;;;;18.13;11.30;;;;;;;10.05;99.33;99154.72;10285322;28;20429;-80
2023/10/31 15:18:44;;;;;;;18.05;8.95;;;;;;;9.82;99.80;99163.16;10271988;28;20054;-79
2023/10/31 15:23:47;;;;;;;18.63;12.02;;;;;;;10.12;99.18;99163.84;10280051;28;20090;-78
2023/10/31 15:28:53;;;;;;;16.63;10.43;;;;;;;10.17;98.58;99162.41;10292576;28;20046;-79
2023/10/31 15:33:58;;;;;;;18.75;11.20;;;;;;;10.38;96.19;99178.22;10288380;28;20058;-79
2023/10/31 15:39:03;;;;;;;18.23;10.75;;;;;;;10.20;98.59;99180.03;10314359;28;20037;-78
2023/10/31 15:44:06;;;;;;;17.35;11.98;;;;;;;10.13;99.39;99193.22;10317866;28;20054;-78
2023/10/31 15:49:10;;;;;;;17.08;11.25;;;;;;;10.13;100.00;99195.06;10332597;28;20105;-78
2023/10/31 15:54:13;;;;;;;16.85;10.82;;;;;;;10.20;99.29;99195.28;10299225;28;20054;-78
2023/10/31 15:59:16;;;;;;;13.57;7.97;;;;;;;9.94;100.00;99204.91;10303723;28;20046;-78
2023/10/31 16:04:23;;;;;;;17.05;9.77;;;;;;;10.05;99.22;99217.28;10295237;28;20602;-79
2023/10/31 16:09:27;;;;;;;15.95;10.10;;;;;;;10.18;98.06;99222.28;10293908;28;20248;-79
2023/10/31 16:14:30;;;;;;;15.32;8.55;;;;;;;10.14;96.84;99229.78;10286743;28;20047;-79
2023/10/31 16:19:34;;;;;;;19.17;9.23;;;;;;;9.97;98.29;99233.25;10303771;28;20042;-78
2023/10/31 16:24:37;;;;;;;12.73;7.47;;;;;;;10.04;97.63;99238.88;10292620;28;20094;-78
2023/10/31 16:29:40;;;;;;;17.08;6.70;;;;;;;9.78;100.00;99252.94;10277757;28;20144;-79
2023/10/31 16:34:46;;;;;;;16.73;7.55;;;;;;;10.05;99.88;99262.88;10288411;28;20521;-78
2023/10/31 16:39:49;;;;;;;15.88;6.25;;;;;;;9.29;100.00;99268.28;10293085;28;20059;-78
2023/10/31 16:44:52;;;;;;;13.55;6.88;;;;;;;9.37;100.00;99278.28;10298293;28;20046;-78
2023/10/31 16:49:56;;;;;;;12.10;5.70;;;;;;;9.66;100.00;99287.13;10273819;28;21306;-78
2023/10/31 16:54:59;;;;;;;11.93;6.90;;;;;;;9.72;100.00;99291.91;10280460;28;20046;-78
2023/10/31 17:00:02;;;;;;;10.02;4.38;;;;;;;9.36;100.00;99292.69;10276423;28;20050;-78
2023/10/31 17:05:07;;;;;;;7.78;3.42;;;;;;;9.28;98.94;99296.94;10277615;28;20509;-78
2023/10/31 17:10:10;;;;;;;5.82;3.72;;;;;;;9.59;96.17;99301.25;10288989;28;20046;-78
2023/10/31 17:15:13;;;;;;;8.50;4.10;;;;;;;9.75;96.94;99301.50;10283531;28;20050;-78
2023/10/31 17:20:17;;;;;;;8.43;4.20;;;;;;;9.53;99.66;99305.34;10287472;28;20054;-78
2023/10/31 17:25:20;;;;;;;8.20;4.45;;;;;;;9.42;100.00;99319.75;10297027;28;20630;-78
2023/10/31 17:30:23;;;;;;;9.15;4.95;;;;;;;9.68;99.84;99333.41;10292615;28;20058;-78
2023/10/31 17:35:27;;;;;;;11.32;5.75;;;;;;;9.44;100.00;99339.22;10281374;28;20046;-78
2023/10/31 17:40:31;;;;;;;9.80;6.53;;;;;;;9.32;100.00;99351.06;10280767;28;20065;-78
2023/10/31 17:45:34;;;;;;;11.65;7.07;;;;;;;9.28;100.00;99355.88;10263853;28;20506;-76
2023/10/31 17:50:38;;;;;;;9.90;6.55;;;;;;;9.36;100.00;99355.19;10294060;28;20070;-78
2023/10/31 17:55:42;;;;;;;14.27;6.60;;;;;;;9.55;100.00;99365.03;10306932;28;20114;-78
2023/10/31 18:00:44;;;;;;;11.68;6.05;;;;;;;9.35;100.00;99361.53;10306064;28;20050;-78
2023/10/31 18:05:49;;;;;;;11.60;5.85;;;;;;;9.48;100.00;99363.91;10277469;28;20047;-78
2023/10/31 18:10:51;;;;;;;10.15;5.43;;;;;;;9.66;100.00;99380.13;10285265;28;20095;-79
2023/10/31 18:15:54;;;;;;;9.63;5.57;;;;;;;9.63;99.65;99375.91;10280679;28;20039;-79
2023/10/31 18:21:01;;;;;;;14.10;6.20;;;;;;;9.57;100.00;99372.94;10296140;28;20046;-79
2023/10/31 18:26:04;;;;;;;11.05;5.75;;;;;;;9.10;100.00;99383.50;10291787;28;20050;-79
2023/10/31 18:31:07;;;;;;;10.65;6.57;;;;;;;9.56;100.00;99387.34;10287309;28;20046;-79
2023/10/31 18:36:11;;;;;;;11.75;6.45;;;;;;;9.24;100.00;99391.13;10292098;28;20441;-79
2023/10/31 18:41:17;;;;;;;9.88;5.55;;;;;;;9.56;99.00;99393.53;10281360;28;20180;-79
2023/10/31 18:46:20;;;;;;;11.50;5.03;;;;;;;9.67;98.07;99388.00;10294803;28;20889;-78
2023/10/31 18:51:25;;;;;;;7.00;3.97;;;;;;;9.73;97.79;99391.97;10276197;28;20054;-78
2023/10/31 18:56:28;;;;;;;6.93;4.43;;;;;;;9.72;97.08;99401.84;10276742;28;20046;-78
2023/10/31 19:01:32;;;;;;;10.95;5.00;;;;;;;9.70;97.15;99392.25;10282626;28;20513;-78
2023/10/31 19:06:36;;;;;;;10.77;4.63;;;;;;;9.75;96.43;99402.56;10285436;28;20050;-78
2023/10/31 19:11:39;;;;;;;7.63;5.13;;;;;;;9.76;96.33;99401.56;10273719;28;20057;-78
2023/10/31 19:16:42;;;;;;;11.60;5.97;;;;;;;9.37;100.00;99396.22;10273537;28;20086;-78
2023/10/31 19:21:46;;;;;;;14.73;7.43;;;;;;;9.16;100.00;99402.56;10280947;28;20057;-79
2023/10/31 19:26:50;;;;;;;9.70;7.13;;;;;;;9.21;100.00;99400.28;10281125;28;20054;-78
2023/10/31 19:31:54;;;;;;;13.57;7.88;;;;;;;9.22;100.00;99406.53;10283741;28;21198;-79
2023/10/31 19:36:58;;;;;;;18.15;8.88;;;;;;;9.23;100.00;99408.19;10296000;28;20054;-78
2023/10/31 19:42:02;;;;;;;16.63;10.32;;;;;;;9.30;100.00;99404.00;10285560;28;20173;-79
2023/10/31 19:47:05;;;;;;;17.58;11.27;;;;;;;9.35;100.00;99416.94;10294249;28;20731;-79
2023/10/31 19:52:09;;;;;;;24.92;12.75;;;;;;;9.40;100.00;99420.91;10286675;28;20058;-79
2023/10/31 19:57:16;;;;;;;24.77;14.27;;;;;;;9.37;100.00;99421.19;10288567;28;20058;-78
2023/10/31 20:02:19;;;;;;;24.33;14.27;;;;;;;9.40;100.00;99428.09;10317111;28;20050;-79
2023/10/31 20:07:24;;;;;;;21.52;14.35;;;;;;;9.44;100.00;99422.31;10307349;28;20081;-78
2023/10/31 20:12:27;;;;;;;29.30;16.98;;;;;;;9.36;100.00;99427.53;10302182;28;20653;-81
2023/10/31 20:17:31;;;;;;;26.10;16.65;;;;;;;9.38;100.00;99424.69;10295106;28;20051;-79
2023/10/31 20:22:36;;;;;;;26.10;17.10;;;;;;;9.48;100.00;99436.28;10297093;28;20054;-79
2023/10/31 20:27:39;;;;;;;33.60;19.02;;;;;;;9.37;100.00;99429.22;10303737;28;20053;-79
2023/10/31 20:32:42;;;;;;;30.10;19.95;;;;;;;9.38;100.00;99436.28;10299700;28;20046;-79
2023/10/31 20:37:46;;;;;;;31.77;20.23;;;;;;;9.28;100.00;99430.06;10303832;28;21183;-78
2023/10/31 20:42:49;;;;;;;29.52;19.77;;;;;;;9.23;100.00;99421.59;10293001;28;20043;-79
2023/10/31 20:47:53;;;;;;;31.48;19.48;;;;;;;9.14;100.00;99431.31;10288795;28;20046;-79
2023/10/31 20:53:00;;;;;;;31.90;21.52;;;;;;;9.21;100.00;99437.78;10301667;28;20065;-79
2023/10/31 20:58:03;;;;;;;37.03;21.02;;;;;;;9.25;100.00;99435.72;10298527;28;20050;-79
2023/10/31 21:03:06;;;;;;;35.72;21.98;;;;;;;9.25;100.00;99428.50;10322136;28;20052;-80
2023/10/31 21:08:10;;;;;;;34.60;21.48;;;;;;;9.29;100.00;99426.41;10320178;28;20053;-79
2023/10/31 21:13:13;;;;;;;30.60;22.15;;;;;;;9.24;100.00;99421.47;10291145;28;20157;-78
2023/10/31 21:18:16;;;;;;;37.13;23.77;;;;;;;9.29;100.00;99429.91;10296960;28;20085;-80
2023/10/31 21:23:20;;;;;;;33.25;19.98;;;;;;;9.16;100.00;99417.78;10288096;28;20042;-77
2023/10/31 21:28:24;;;;;;;36.97;22.17;;;;;;;9.26;100.00;99432.88;10288414;28;20417;-78
2023/10/31 21:33:27;;;;;;;31.80;22.00;;;;;;;9.37;100.00;99431.91;10290165;28;20050;-79
2023/10/31 21:38:31;;;;;;;28.98;20.48;;;;;;;9.33;100.00;99433.19;10294759;28;20057;-79
2023/10/31 21:43:34;;;;;;;29.02;20.80;;;;;;;9.29;100.00;99434.44;10287681;28;20043;-79
2023/10/31 21:48:38;;;;;;;31.67;19.52;;;;;;;9.45;100.00;99428.53;10297247;28;20043;-78
2023/10/31 21:53:43;;;;;;;29.67;20.70;;;;;;;9.40;100.00;99415.53;10288211;28;20667;-78
2023/10/31 21:58:45;;;;;;;34.97;20.25;;;;;;;9.51;100.00;99423.44;10297486;28;20425;-79
2023/10/31 22:03:49;;;;;;;34.30;22.50;;;;;;;9.60;100.00;99424.44;10293752;28;20143;-78
2023/10/31 22:08:54;;;;;;;34.75;22.33;;;;;;;9.63;100.00;99426.00;10293497;28;20058;-79
2023/10/31 22:13:57;;;;;;;35.42;21.70;;;;;;;9.64;100.00;99422.31;10301696;28;20054;-79
2023/10/31 22:19:00;;;;;;;36.47;22.73;;;;;;;9.61;100.00;99427.97;10294930;28;20050;-78
2023/10/31 22:24:04;;;;;;;36.42;23.85;;;;;;;9.66;100.00;99418.50;10281067;28;20141;-78
2023/10/31 22:29:07;;;;;;;40.42;25.33;;;;;;;9.68;100.00;99423.72;10292345;28;20517;-78
2023/10/31 22:34:10;;;;;;;44.42;25.55;;;;;;;9.69;100.00;99423.59;10284713;28;20054;-79
2023/10/31 22:39:15;;;;;;;45.42;25.88;;;;;;;9.73;100.00;99424.16;10294019;28;20061;-80
2023/10/31 22:44:18;;;;;;;48.67;26.77;;;;;;;9.73;100.00;99408.06;10287570;28;20050;-77
2023/10/31 22:49:22;;;;;;;41.97;23.73;;;;;;;9.75;100.00;99432.91;10294220;28;20046;-81
2023/10/31 22:54:26;;;;;;;41.80;26.20;;;;;;;9.70;100.00;99432.47;10295136;28;20046;-80
2023/10/31 22:59:32;;;;;;;44.15;24.45;;;;;;;9.68;100.00;99429.09;10290747;28;20403;-78
2023/10/31 23:04:35;;;;;;;41.72;24.48;;;;;;;9.69;100.00;99428.13;10287485;28;20042;-79
2023/10/31 23:09:40;;;;;;;40.03;22.63;;;;;;;9.67;100.00;99425.56;10284671;28;20125;-78
2023/10/31 23:14:43;;;;;;;31.80;17.33;;;;;;;9.51;100.00;99423.44;10317641;28;20049;-78